Terminal Aerodrome Forecast
Issued by NWS

Home | Current Version | Previous Version | Text Only | Print | Product List | Glossary On
Versions: 1 2 3 4 5 6 7 8 9 10 11 12 13 14 15 16
018
FTUS41 KALY 232336
TAFPSF
TAF
KPSF 232336Z 2400/2424 30010G18KT P6SM VCSH FEW050 SCT100 SCT250
      TEMPO 2400/2401 3SM -SHRA BR BKN050
     FM240100 34010G19KT P6SM VCSH SCT050 BKN100
     FM240300 34004KT P6SM FEW050
     FM240600 VRB03KT 3SM BR FEW030
     FM241200 30003KT P6SM SKC
     FM241500 30006KT P6SM SKC=

USA.gov is the U.S. government's official web portal to all federal, state and local government web resources and services.